Time;durP1;ratioP1;P1;durP2;ratioP2;P2;SDS_P1;SDS_P2;PMS_P1;PMS_P2;Temp;Humidity;BMP_temperature;BMP_pressure;BME280_temperature;BME280_humidity;BME280_pressure;Samples;Min_cycle;Max_cycle;Signal;HPM_P1;HPM_P2
2023/07/18 00:06:58;;;;;;;15.98;6.18;;;;;;;25.33;100.00;100559.25;21135504;28;20088;-76
2023/07/18 00:17:22;;;;;;;13.05;6.03;;;;;;;25.27;100.00;100555.00;21199147;28;20159;-75
2023/07/18 00:27:45;;;;;;;14.02;5.68;;;;;;;25.17;100.00;100542.91;21203725;28;20057;-75
2023/07/18 00:38:11;;;;;;;13.65;6.38;;;;;;;25.16;100.00;100534.84;21228801;27;20043;-75
2023/07/18 00:48:34;;;;;;;11.18;6.07;;;;;;;25.07;100.00;100530.78;21221420;27;20092;-76
2023/07/18 00:59:00;;;;;;;15.27;5.88;;;;;;;24.99;100.00;100539.25;21220689;27;20103;-75
2023/07/18 01:09:23;;;;;;;13.35;5.55;;;;;;;25.07;100.00;100536.19;21233227;27;20108;-76
2023/07/18 01:19:27;;;;;;;12.15;6.72;;;;;;;25.03;100.00;100526.47;21245159;27;20403;-76
2023/07/18 01:29:52;;;;;;;14.32;5.93;;;;;;;24.95;100.00;100521.44;21216497;27;20050;-76
2023/07/18 01:40:19;;;;;;;14.30;6.43;;;;;;;24.94;100.00;100521.53;21207625;27;20047;-75
2023/07/18 01:50:44;;;;;;;12.70;6.00;;;;;;;24.82;100.00;100520.22;21214361;27;20043;-75
2023/07/18 02:00:47;;;;;;;13.60;6.10;;;;;;;24.73;100.00;100522.50;21225300;27;20062;-75
2023/07/18 02:11:12;;;;;;;12.07;6.03;;;;;;;24.71;100.00;100521.69;21212835;27;20043;-75
2023/07/18 02:21:34;;;;;;;13.07;6.43;;;;;;;24.69;100.00;100520.88;21226202;27;20507;-75
2023/07/18 02:31:58;;;;;;;15.27;6.65;;;;;;;24.71;100.00;100519.84;21224609;27;20108;-76
2023/07/18 02:42:21;;;;;;;14.82;7.03;;;;;;;24.77;100.00;100529.50;21209436;27;20058;-76
2023/07/18 02:52:45;;;;;;;14.82;7.97;;;;;;;24.89;100.00;100537.94;21210159;27;20051;-75
2023/07/18 03:03:08;;;;;;;12.77;6.40;;;;;;;24.88;100.00;100528.03;21209328;27;20514;-75
2023/07/18 03:13:32;;;;;;;14.20;7.30;;;;;;;24.91;100.00;100540.56;21207702;27;20058;-76
2023/07/18 03:23:54;;;;;;;16.35;6.78;;;;;;;24.90;100.00;100541.50;21223849;27;20107;-76
2023/07/18 03:34:18;;;;;;;12.85;6.80;;;;;;;24.91;100.00;100540.56;21221736;27;20097;-75
2023/07/18 03:44:43;;;;;;;14.88;7.18;;;;;;;25.14;100.00;100539.47;21221035;27;20054;-75
2023/07/18 03:55:08;;;;;;;12.00;6.20;;;;;;;25.49;100.00;100535.03;21207412;27;20482;-75
2023/07/18 04:05:31;;;;;;;11.93;6.05;;;;;;;25.88;100.00;100540.31;21206451;27;20047;-75
2023/07/18 04:15:55;;;;;;;11.80;5.60;;;;;;;26.30;100.00;100542.66;21205236;27;20058;-76
2023/07/18 04:26:18;;;;;;;12.68;5.78;;;;;;;26.71;100.00;100544.03;21218649;28;20197;-76
2023/07/18 04:36:43;;;;;;;12.00;5.50;;;;;;;27.14;100.00;100545.25;21201004;28;20753;-76
2023/07/18 04:47:08;;;;;;;15.15;6.22;;;;;;;27.63;100.00;100550.63;21219792;28;20051;-76
2023/07/18 04:57:34;;;;;;;9.18;4.13;;;;;;;27.99;100.00;100571.97;21204359;28;20388;-76
2023/07/18 05:07:58;;;;;;;12.13;5.30;;;;;;;28.57;100.00;100580.19;21217231;28;20051;-76
2023/07/18 05:18:22;;;;;;;10.30;5.13;;;;;;;29.05;100.00;100575.41;21218331;27;20094;-76
2023/07/18 05:28:45;;;;;;;12.40;4.68;;;;;;;29.60;100.00;100561.84;21232860;27;20142;-76
2023/07/18 05:39:09;;;;;;;15.82;5.00;;;;;;;30.26;100.00;100571.91;21230737;27;20430;-76
2023/07/18 05:49:31;;;;;;;10.38;3.95;;;;;;;30.81;100.00;100563.44;21230795;27;20440;-76
2023/07/18 05:59:57;;;;;;;12.55;4.10;;;;;;;31.47;99.13;100564.97;21231570;27;20076;-76
2023/07/18 06:10:20;;;;;;;8.45;3.67;;;;;;;32.34;91.62;100551.06;21211658;27;20055;-76
2023/07/18 06:20:34;;;;;;;11.10;3.80;;;;;;;33.17;79.55;100544.31;21226359;27;20059;-76
2023/07/18 06:30:57;;;;;;;11.85;3.70;;;;;;;33.58;71.90;100551.00;21211905;27;20143;-76
2023/07/18 06:41:21;;;;;;;11.02;3.67;;;;;;;34.04;65.32;100538.91;21226929;27;20104;-76
2023/07/18 06:51:43;;;;;;;10.23;3.80;;;;;;;34.31;58.92;100531.06;21225373;27;20047;-76
2023/07/18 07:02:10;;;;;;;10.73;3.47;;;;;;;34.17;58.90;100532.22;21227552;27;20062;-76
2023/07/18 07:12:33;;;;;;;11.05;3.50;;;;;;;34.04;58.95;100536.16;21222581;27;20079;-77
2023/07/18 07:22:58;;;;;;;10.00;3.40;;;;;;;34.31;56.76;100533.81;21223795;27;20049;-76
2023/07/18 07:33:21;;;;;;;7.70;3.00;;;;;;;34.37;52.10;100531.41;21206964;27;20051;-76
2023/07/18 07:43:45;;;;;;;12.80;3.25;;;;;;;34.94;50.92;100543.72;21207473;27;20039;-76
2023/07/18 07:54:08;;;;;;;16.98;3.65;;;;;;;35.33;50.52;100554.88;21221240;27;20096;-75
2023/07/18 08:04:32;;;;;;;10.98;3.50;;;;;;;35.30;47.17;100556.03;21216069;27;20054;-76
2023/07/18 08:14:54;;;;;;;11.23;3.50;;;;;;;35.00;46.32;100545.91;21211827;27;20055;-77
2023/07/18 08:25:18;;;;;;;10.80;3.67;;;;;;;34.72;43.72;100557.63;21198930;28;20089;-76
2023/07/18 08:35:41;;;;;;;13.65;3.55;;;;;;;34.78;43.27;100549.72;21203329;28;20058;-75
2023/07/18 08:46:06;;;;;;;9.75;3.55;;;;;;;35.49;41.82;100561.56;21201702;28;20104;-76
2023/07/18 08:56:28;;;;;;;9.98;3.45;;;;;;;35.75;38.90;100569.31;21208698;27;20039;-76
2023/07/18 09:06:58;;;;;;;10.85;3.10;;;;;;;36.12;37.54;100564.84;21232538;27;20055;-76
2023/07/18 09:17:21;;;;;;;8.95;2.83;;;;;;;36.21;35.64;100557.66;21192188;27;20486;-75
2023/07/18 09:27:45;;;;;;;9.68;2.78;;;;;;;36.33;35.77;100553.72;21230908;27;20444;-75
2023/07/18 09:38:08;;;;;;;10.30;3.42;;;;;;;36.93;35.16;100526.81;21229905;27;20043;-75
2023/07/18 09:48:34;;;;;;;14.07;3.40;;;;;;;36.94;36.20;100539.56;21227586;27;20047;-76
2023/07/18 09:59:01;;;;;;;7.87;3.30;;;;;;;37.14;34.91;100523.84;21216053;27;20055;-75
2023/07/18 10:09:05;;;;;;;8.73;2.83;;;;;;;37.27;33.79;100524.34;21246951;27;20303;-75
2023/07/18 10:19:28;;;;;;;9.35;2.60;;;;;;;37.21;32.79;100524.97;21238171;27;20043;-75
2023/07/18 10:30:06;;;;;;;12.27;3.03;;;;;;;36.98;33.71;100519.81;21211484;27;20043;-75
2023/07/18 10:40:35;;;;;;;11.02;3.53;;;;;;;36.61;33.63;100516.16;21222306;27;20054;-75
2023/07/18 10:51:03;;;;;;;11.20;2.92;;;;;;;36.81;34.15;100511.50;21221191;27;20505;-74
2023/07/18 11:01:26;;;;;;;11.95;3.22;;;;;;;37.09;34.91;100511.34;21208047;27;20104;-75
2023/07/18 11:11:51;;;;;;;12.53;2.63;;;;;;;37.24;32.97;100505.38;21220287;27;20047;-75
2023/07/18 11:22:14;;;;;;;10.90;2.70;;;;;;;36.98;31.94;100483.16;21219193;27;20573;-75
2023/07/18 11:32:40;;;;;;;11.65;3.60;;;;;;;36.94;32.93;100490.88;21213109;27;20047;-76
2023/07/18 11:43:03;;;;;;;12.05;2.90;;;;;;;36.91;33.40;100480.16;21206056;27;20142;-75
2023/07/18 11:53:28;;;;;;;8.65;2.85;;;;;;;36.79;33.48;100481.38;21218853;27;20104;-75
2023/07/18 12:03:51;;;;;;;8.77;3.10;;;;;;;36.38;33.02;100482.63;21206540;27;20051;-74
2023/07/18 12:14:16;;;;;;;10.25;3.08;;;;;;;36.33;33.73;100466.56;21217887;27;20108;-75
2023/07/18 12:24:38;;;;;;;9.32;3.20;;;;;;;36.04;34.66;100478.63;21202157;27;20123;-75
2023/07/18 12:35:04;;;;;;;9.80;3.42;;;;;;;36.20;35.00;100476.16;21233618;27;20051;-75
2023/07/18 12:45:12;;;;;;;12.40;3.28;;;;;;;36.36;35.67;100475.56;21233420;27;20039;-75
2023/07/18 12:55:36;;;;;;;11.93;4.05;;;;;;;36.23;36.79;100471.25;21235776;27;20047;-75
2023/07/18 13:05:59;;;;;;;12.77;3.60;;;;;;;36.23;36.04;100460.25;21221693;27;20104;-76
2023/07/18 13:16:24;;;;;;;11.88;4.25;;;;;;;36.04;35.94;100462.13;21219355;27;20051;-76
2023/07/18 13:26:47;;;;;;;11.80;3.78;;;;;;;35.95;36.29;100453.75;21233513;27;20433;-75
2023/07/18 13:37:11;;;;;;;9.90;3.67;;;;;;;35.65;37.87;100439.25;21230676;27;20076;-77
2023/07/18 13:47:33;;;;;;;13.88;4.15;;;;;;;35.33;40.32;100445.88;21230767;27;20742;-77
2023/07/18 13:57:57;;;;;;;14.52;3.65;;;;;;;35.14;38.78;100427.47;21216024;27;20055;-75
2023/07/18 14:08:20;;;;;;;17.45;3.83;;;;;;;35.40;38.22;100426.97;21229973;27;20084;-76
2023/07/18 14:18:24;;;;;;;8.20;3.42;;;;;;;35.90;38.83;100405.72;21236473;27;20055;-76
2023/07/18 14:28:46;;;;;;;10.45;4.15;;;;;;;36.14;38.10;100414.34;21227408;27;20403;-75
2023/07/18 14:39:05;;;;;;;13.82;3.65;;;;;;;36.16;37.05;100406.81;21209719;27;20043;-75
2023/07/18 14:49:28;;;;;;;9.20;3.07;;;;;;;36.33;35.43;100402.44;21223946;27;20058;-75
2023/07/18 14:59:52;;;;;;;11.50;3.40;;;;;;;35.81;34.97;100398.34;21210441;27;20043;-75
2023/07/18 15:10:17;;;;;;;9.47;3.10;;;;;;;35.48;36.03;100405.16;21207872;27;20047;-75
2023/07/18 15:20:41;;;;;;;12.05;3.35;;;;;;;34.61;36.74;100396.69;21221135;27;20050;-74
2023/07/18 15:31:04;;;;;;;15.27;3.92;;;;;;;33.56;37.97;100394.16;21220439;27;20061;-74
2023/07/18 15:41:28;;;;;;;9.20;3.25;;;;;;;32.89;38.33;100401.69;21206286;27;20437;-74
2023/07/18 15:51:50;;;;;;;7.38;3.20;;;;;;;32.10;39.92;100400.78;21218295;27;20108;-74
2023/07/18 16:02:15;;;;;;;16.45;4.78;;;;;;;31.71;41.84;100403.94;21205470;27;20055;-74
2023/07/18 16:12:37;;;;;;;15.02;4.13;;;;;;;31.34;44.29;100395.84;21218797;27;20840;-75
2023/07/18 16:23:04;;;;;;;11.85;3.78;;;;;;;31.06;43.92;100394.31;21203607;28;20048;-76
2023/07/18 16:33:27;;;;;;;14.27;3.37;;;;;;;30.97;43.64;100396.84;21193597;27;20457;-74
2023/07/18 16:43:50;;;;;;;9.73;3.58;;;;;;;30.74;43.39;100395.84;21217571;28;20054;-75
2023/07/18 16:54:13;;;;;;;14.30;3.75;;;;;;;30.51;43.88;100386.63;21216121;28;20047;-75
2023/07/18 17:04:38;;;;;;;12.35;3.80;;;;;;;30.34;44.64;100395.13;21203115;28;20099;-75
2023/07/18 17:15:01;;;;;;;12.25;4.10;;;;;;;30.13;44.32;100389.34;21218282;27;20075;-75
2023/07/18 17:25:26;;;;;;;8.88;3.97;;;;;;;29.92;43.56;100386.34;21192474;27;20082;-75
2023/07/18 17:35:49;;;;;;;10.25;3.92;;;;;;;29.71;43.37;100377.78;21228125;27;20035;-75
2023/07/18 17:46:13;;;;;;;11.00;3.45;;;;;;;29.60;43.71;100376.81;21216159;27;20401;-75
2023/07/18 17:56:36;;;;;;;13.80;4.95;;;;;;;29.45;45.12;100370.56;21215168;27;20124;-76
2023/07/18 18:07:01;;;;;;;11.70;3.40;;;;;;;29.33;48.44;100393.13;21213568;27;20058;-76
2023/07/18 18:17:23;;;;;;;13.23;4.35;;;;;;;29.21;54.25;100393.97;21209236;27;20044;-75
2023/07/18 18:27:47;;;;;;;13.43;4.15;;;;;;;29.08;61.33;100423.81;21227741;27;20051;-76
2023/07/18 18:38:10;;;;;;;13.27;4.70;;;;;;;28.98;63.67;100425.41;21210077;27;20039;-76
2023/07/18 18:48:34;;;;;;;18.98;5.47;;;;;;;28.86;72.44;100437.09;21211616;27;20046;-76
2023/07/18 18:58:57;;;;;;;13.88;4.25;;;;;;;28.65;81.59;100439.31;21198879;27;20480;-76
2023/07/18 19:09:21;;;;;;;12.45;4.25;;;;;;;28.51;84.43;100453.78;21222263;27;20058;-76
2023/07/18 19:19:44;;;;;;;13.18;5.57;;;;;;;28.42;83.39;100454.34;21216158;27;20051;-76
2023/07/18 19:30:09;;;;;;;13.07;4.80;;;;;;;28.32;85.49;100450.47;21207614;27;20134;-76
2023/07/18 19:40:17;;;;;;;14.40;4.13;;;;;;;28.26;85.39;100447.28;21214998;27;20058;-75
2023/07/18 19:50:42;;;;;;;12.25;4.20;;;;;;;28.17;85.95;100443.28;21179652;27;20078;-75
2023/07/18 20:01:05;;;;;;;10.35;4.55;;;;;;;28.05;86.21;100444.03;21204531;27;20103;-76
2023/07/18 20:11:30;;;;;;;13.15;4.22;;;;;;;27.95;84.85;100438.31;21199135;27;20049;-75
2023/07/18 20:21:53;;;;;;;11.77;4.40;;;;;;;27.85;82.86;100431.69;21212275;28;20482;-76
2023/07/18 20:32:18;;;;;;;12.02;4.22;;;;;;;27.84;79.49;100437.19;21216139;28;20047;-76
2023/07/18 20:42:22;;;;;;;10.80;3.72;;;;;;;27.82;74.87;100436.44;21212378;28;20454;-76
2023/07/18 20:52:47;;;;;;;11.27;3.92;;;;;;;27.76;74.55;100433.09;21226410;27;20061;-75
2023/07/18 21:03:10;;;;;;;11.88;3.50;;;;;;;27.70;74.46;100444.31;21220610;27;20058;-76
2023/07/18 21:13:34;;;;;;;9.48;3.50;;;;;;;27.66;74.42;100433.75;21217306;27;20047;-76
2023/07/18 21:23:59;;;;;;;11.07;4.07;;;;;;;27.60;74.98;100423.28;21234053;27;20051;-75
2023/07/18 21:34:23;;;;;;;10.32;3.60;;;;;;;27.57;75.86;100429.75;21214560;27;20054;-76
2023/07/18 21:44:46;;;;;;;15.35;3.67;;;;;;;27.47;77.25;100430.38;21217250;27;20043;-75
2023/07/18 21:55:11;;;;;;;9.65;3.55;;;;;;;27.50;77.66;100422.06;21228269;27;20300;-75
2023/07/18 22:05:34;;;;;;;9.25;3.40;;;;;;;27.40;78.47;100415.44;21229703;27;20065;-75
2023/07/18 22:15:58;;;;;;;9.10;3.17;;;;;;;27.36;76.93;100414.75;21214589;27;20090;-75
2023/07/18 22:26:21;;;;;;;11.43;3.35;;;;;;;27.32;77.10;100402.31;21215004;27;20047;-76
2023/07/18 22:36:48;;;;;;;13.35;3.97;;;;;;;27.31;79.08;100398.72;21212917;27;20049;-75
2023/07/18 22:47:11;;;;;;;9.70;3.75;;;;;;;27.27;80.30;100390.88;21226553;27;20050;-75
2023/07/18 22:57:36;;;;;;;11.48;3.78;;;;;;;27.18;81.20;100386.00;21212894;27;20061;-75
2023/07/18 23:07:59;;;;;;;14.73;3.33;;;;;;;27.14;81.58;100374.47;21211601;27;20047;-76
2023/07/18 23:18:24;;;;;;;14.00;3.53;;;;;;;27.00;82.85;100369.00;21222223;27;20051;-75
2023/07/18 23:28:47;;;;;;;10.45;3.15;;;;;;;26.92;82.91;100349.59;21222098;27;20156;-75
2023/07/18 23:39:12;;;;;;;11.68;3.05;;;;;;;26.88;82.65;100335.31;21222224;27;20055;-75
2023/07/18 23:49:36;;;;;;;9.93;3.10;;;;;;;26.84;82.98;100316.66;21206383;27;20057;-75
